| time (UTC) | temp C | wind direction | speed KPH | gust KPH | rain 1hr cm | rain 24hr cm | rain mn cm | humidity % | barometer mb |
| 20260906105203 | 19 | 314 | 0.0 | 3.2 | 0.00 | 0.00 | 0.00 | 99 | 1015.8 |
| 20260906105003 | 19 | 0 | 0.0 | 0.0 | 0.00 | 0.00 | 0.00 | 99 | 1015.7 |
| 20260906104805 | 19 | 0 | 0.0 | 0.0 | 0.00 | 0.00 | 0.00 | 99 | 1015.5 |
| 20260906104603 | 19 | 0 | 0.0 | 0.0 | 0.00 | 0.00 | 0.00 | 99 | 1015.8 |
| 20260906104204 | 19 | 0 | 0.0 | 0.0 | 0.00 | 0.00 | 0.00 | 99 | 1015.8 |
| 20260906104003 | 19 | 0 | 0.0 | 0.0 | 0.00 | 0.00 | 0.00 | 99 | 1015.6 |
| 20260906103804 | 19 | 0 | 0.0 | 0.0 | 0.00 | 0.00 | 0.00 | 99 | 1015.8 |
| 20260906103604 | 19 | 0 | 0.0 | 0.0 | 0.00 | 0.00 | 0.00 | 99 | 1015.7 |
| 20260906103403 | 19 | 0 | 0.0 | 0.0 | 0.00 | 0.00 | 0.00 | 99 | 1015.5 |
| 20260906103203 | 19 | 0 | 0.0 | 0.0 | 0.00 | 0.00 | 0.00 | 99 | 1015.6 |
| 20260906103004 | 19 | 0 | 0.0 | 0.0 | 0.00 | 0.00 | 0.00 | 98 | 1015.6 |
| 20260906102803 | 19 | 0 | 0.0 | 0.0 | 0.00 | 0.00 | 0.00 | 98 | 1015.6 |
| 20260906102604 | 19 | 0 | 0.0 | 0.0 | 0.00 | 0.00 | 0.00 | 98 | 1015.5 |
| 20260906102403 | 19 | 0 | 0.0 | 0.0 | 0.00 | 0.00 | 0.00 | 98 | 1015.6 |
| 20260906102203 | 19 | 351 | 0.0 | 3.2 | 0.00 | 0.00 | 0.00 | 98 | 1015.6 |
| 20260906102004 | 19 | 325 | 1.6 | 3.2 | 0.00 | 0.00 | 0.00 | 98 | 1015.6 |
| 20260906101803 | 19 | 322 | 1.6 | 3.2 | 0.00 | 0.00 | 0.00 | 98 | 1015.5 |
| 20260906101603 | 19 | 322 | 1.6 | 3.2 | 0.00 | 0.00 | 0.00 | 98 | 1015.8 |
| 20260906101404 | 19 | 322 | 1.6 | 3.2 | 0.00 | 0.00 | 0.00 | 98 | 1015.5 |
| 20260906101203 | 19 | 314 | 1.6 | 3.2 | 0.00 | 0.00 | 0.00 | 98 | 1015.6 |
| 20260906101004 | 19 | 314 | 0.0 | 3.2 | 0.00 | 0.00 | 0.00 | 97 | 1015.6 |
| 20260906100804 | 19 | 0 | 0.0 | 0.0 | 0.00 | 0.00 | 0.00 | 97 | 1015.6 |
| 20260906100603 | 20 | 1 | 0.0 | 1.6 | 0.00 | 0.00 | 0.00 | 97 | 1015.7 |
| 20260906100204 | 20 | 323 | 1.6 | 4.8 | 0.00 | 0.00 | 0.00 | 97 | 1015.6 |
| 20260906100004 | 20 | 321 | 1.6 | 4.8 | 0.00 | 0.00 | 0.00 | 97 | 1015.7 |
| 20260906095803 | 20 | 321 | 1.6 | 4.8 | 0.00 | 0.00 | 0.00 | 97 | 1015.6 |
| 20260906095604 | 20 | 316 | 1.6 | 4.8 | 0.00 | 0.00 | 0.00 | 96 | 1015.6 |
| 20260906095403 | 20 | 314 | 1.6 | 4.8 | 0.00 | 0.00 | 0.00 | 96 | 1015.7 |
| 20260906095204 | 20 | 314 | 0.0 | 4.8 | 0.00 | 0.00 | 0.00 | 96 | 1015.6 |
| 20260906095004 | 20 | 0 | 0.0 | 0.0 | 0.00 | 0.00 | 0.00 | 96 | 1015.9 |
| 20260906094604 | 20 | 0 | 0.0 | 0.0 | 0.00 | 0.00 | 0.00 | 96 | 1015.8 |
| 20260906094403 | 20 | 0 | 0.0 | 0.0 | 0.00 | 0.00 | 0.00 | 96 | 1015.7 |
| 20260906094203 | 20 | 0 | 0.0 | 0.0 | 0.00 | 0.00 | 0.00 | 95 | 1015.8 |
| 20260906094004 | 20 | 0 | 0.0 | 0.0 | 0.00 | 0.00 | 0.00 | 95 | 1015.7 |
| 20260906093803 | 20 | 0 | 0.0 | 0.0 | 0.00 | 0.00 | 0.00 | 95 | 1015.7 |
| 20260906093603 | 20 | 298 | 0.0 | 4.8 | 0.00 | 0.00 | 0.00 | 95 | 1015.7 |
| 20260906093403 | 20 | 313 | 1.6 | 8.0 | 0.00 | 0.00 | 0.00 | 95 | 1015.7 |
| 20260906093203 | 20 | 328 | 3.2 | 8.0 | 0.00 | 0.00 | 0.00 | 94 | 1015.7 |
| 20260906093004 | 20 | 331 | 3.2 | 8.0 | 0.00 | 0.00 | 0.00 | 94 | 1015.8 |
| 20260906092804 | 20 | 330 | 3.2 | 8.0 | 0.00 | 0.00 | 0.00 | 94 | 1015.7 |
| 20260906092603 | 20 | 333 | 3.2 | 8.0 | 0.00 | 0.00 | 0.00 | 94 | 1015.8 |
| 20260906092404 | 20 | 323 | 3.2 | 8.0 | 0.00 | 0.00 | 0.00 | 93 | 1015.7 |
| 20260906092203 | 20 | 269 | 1.6 | 8.0 | 0.00 | 0.00 | 0.00 | 93 | 1015.9 |
| 20260906092004 | 20 | 246 | 3.2 | 8.0 | 0.00 | 0.00 | 0.00 | 93 | 1016.0 |
| 20260906091604 | 20 | 233 | 3.2 | 8.0 | 0.00 | 0.00 | 0.00 | 93 | 1015.7 |
| 20260906091403 | 20 | 220 | 1.6 | 8.0 | 0.00 | 0.00 | 0.00 | 93 | 1015.8 |
| 20260906091204 | 20 | 218 | 1.6 | 8.0 | 0.00 | 0.00 | 0.00 | 93 | 1015.7 |
| 20260906090803 | 20 | 208 | 1.6 | 4.8 | 0.00 | 0.00 | 0.00 | 93 | 1015.7 |
| 20260906090404 | 20 | 207 | 4.8 | 11.3 | 0.00 | 0.00 | 0.00 | 93 | 1015.7 |
| 20260906090003 | 20 | 176 | 4.8 | 11.3 | 0.00 | 0.00 | 0.00 | 94 | 1015.5 |
| 20260906085804 | 20 | 316 | 4.8 | 11.3 | 0.00 | 0.00 | 0.00 | 95 | 1015.5 |
| 20260906085403 | 20 | 318 | 8.0 | 19.3 | 0.00 | 0.00 | 0.00 | 97 | 1015.4 |
| 20260906085204 | 20 | 323 | 9.7 | 19.3 | 0.00 | 0.00 | 0.00 | 98 | 1015.7 |
| 20260906085004 | 20 | 314 | 11.3 | 22.5 | 0.00 | 0.00 | 0.00 | 98 | 1015.7 |
| 20260906084803 | 20 | 313 | 9.7 | 22.5 | 0.00 | 0.00 | 0.00 | 99 | 1015.7 |
| 20260906084204 | 19 | 317 | 3.2 | 22.5 | 0.00 | 0.00 | 0.00 | 98 | 1015.7 |
| 20260906084004 | 19 | 314 | 0.0 | 9.7 | 0.00 | 0.00 | 0.00 | 98 | 1015.7 |
| 20260906083804 | 19 | 0 | 0.0 | 0.0 | 0.00 | 0.00 | 0.00 | 98 | 1015.7 |
| 20260906083603 | 19 | 0 | 0.0 | 0.0 | 0.00 | 0.00 | 0.00 | 98 | 1015.5 |
| 20260906083404 | 19 | 0 | 0.0 | 0.0 | 0.00 | 0.00 | 0.00 | 98 | 1015.7 |
| 20260906083204 | 19 | 0 | 0.0 | 0.0 | 0.00 | 0.00 | 0.00 | 98 | 1015.6 |
| 20260906083003 | 19 | 0 | 0.0 | 0.0 | 0.00 | 0.00 | 0.00 | 97 | 1015.6 |
| 20260906082803 | 19 | 0 | 0.0 | 0.0 | 0.00 | 0.00 | 0.00 | 97 | 1015.7 |
| 20260906082604 | 19 | 0 | 0.0 | 0.0 | 0.00 | 0.00 | 0.00 | 97 | 1015.6 |
| 20260906082203 | 19 | 0 | 0.0 | 0.0 | 0.00 | 0.00 | 0.00 | 97 | 1015.6 |
| 20260906081803 | 19 | 0 | 0.0 | 0.0 | 0.00 | 0.00 | 0.00 | 97 | 1015.7 |
| 20260906081603 | 19 | 0 | 0.0 | 0.0 | 0.00 | 0.00 | 0.00 | 96 | 1015.6 |
| 20260906081203 | 19 | 0 | 0.0 | 0.0 | 0.00 | 0.00 | 0.00 | 96 | 1015.3 |
| 20260906081004 | 19 | 0 | 0.0 | 0.0 | 0.00 | 0.00 | 0.00 | 96 | 1015.3 |
| 20260906080804 | 19 | 0 | 0.0 | 0.0 | 0.00 | 0.00 | 0.00 | 96 | 1015.4 |
| 20260906080603 | 19 | 0 | 0.0 | 0.0 | 0.00 | 0.00 | 0.00 | 96 | 1015.3 |
| 20260906080404 | 19 | 0 | 0.0 | 0.0 | 0.00 | 0.00 | 0.00 | 96 | 1015.2 |
| 20260906080204 | 19 | 0 | 0.0 | 0.0 | 0.00 | 0.00 | 0.00 | 96 | 1015.3 |
| 20260906080003 | 19 | 0 | 0.0 | 0.0 | 0.00 | 0.00 | 0.00 | 96 | 1015.3 |
| 20260906075804 | 19 | 0 | 0.0 | 0.0 | 0.00 | 0.00 | 0.00 | 96 | 1015.5 |
| 20260906075004 | 19 | 0 | 0.0 | 0.0 | 0.00 | 0.00 | 0.00 | 96 | 1015.4 |
| 20260906074803 | 19 | 0 | 0.0 | 0.0 | 0.00 | 0.00 | 0.00 | 96 | 1015.4 |
| 20260906074603 | 19 | 0 | 0.0 | 0.0 | 0.00 | 0.00 | 0.00 | 96 | 1015.5 |
| 20260906074003 | 19 | 0 | 0.0 | 0.0 | 0.00 | 0.00 | 0.00 | 96 | 1015.5 |
| 20260906073804 | 19 | 0 | 0.0 | 0.0 | 0.00 | 0.00 | 0.00 | 96 | 1015.7 |
| 20260906073604 | 19 | 0 | 0.0 | 0.0 | 0.00 | 0.00 | 0.00 | 96 | 1015.3 |
| 20260906073204 | 19 | 0 | 0.0 | 0.0 | 0.00 | 0.00 | 0.00 | 97 | 1015.3 |
| 20260906073004 | 19 | 314 | 0.0 | 3.2 | 0.00 | 0.00 | 0.00 | 97 | 1015.3 |
| 20260906072803 | 19 | 314 | 1.6 | 4.8 | 0.00 | 0.00 | 0.00 | 96 | 1015.4 |
| 20260906072604 | 19 | 314 | 1.6 | 4.8 | 0.00 | 0.00 | 0.00 | 96 | 1015.4 |
| 20260906072403 | 19 | 314 | 1.6 | 4.8 | 0.00 | 0.00 | 0.00 | 96 | 1015.5 |
| 20260906072203 | 19 | 314 | 1.6 | 4.8 | 0.00 | 0.00 | 0.00 | 96 | 1015.4 |
| 20260906072004 | 19 | 314 | 1.6 | 4.8 | 0.00 | 0.00 | 0.00 | 96 | 1015.5 |
| 20260906071603 | 19 | 0 | 0.0 | 0.0 | 0.00 | 0.00 | 0.00 | 96 | 1015.5 |
| 20260906071404 | 19 | 0 | 0.0 | 0.0 | 0.00 | 0.00 | 0.00 | 96 | 1015.4 |
| 20260906071004 | 19 | 314 | 0.0 | 1.6 | 0.00 | 0.00 | 0.00 | 96 | 1015.3 |
| 20260906070804 | 19 | 314 | 0.0 | 3.2 | 0.00 | 0.00 | 0.00 | 96 | 1015.3 |
| 20260906070603 | 19 | 314 | 0.0 | 3.2 | 0.00 | 0.00 | 0.00 | 96 | 1015.4 |
| 20260906070404 | 19 | 324 | 1.6 | 3.2 | 0.00 | 0.00 | 0.00 | 96 | 1015.5 |
| 20260906070203 | 19 | 339 | 1.6 | 4.8 | 0.00 | 0.00 | 0.00 | 96 | 1015.6 |
| 20260906065804 | 19 | 330 | 3.2 | 4.8 | 0.00 | 0.00 | 0.00 | 96 | 1015.6 |
| 20260906065603 | 19 | 332 | 3.2 | 4.8 | 0.00 | 0.00 | 0.00 | 96 | 1015.9 |
| 20260906065404 | 19 | 330 | 1.6 | 4.8 | 0.00 | 0.00 | 0.00 | 96 | 1015.8 |
| 20260906065003 | 20 | 314 | 1.6 | 4.8 | 0.00 | 0.00 | 0.00 | 96 | 1015.8 |
| 20260906064603 | 20 | 0 | 0.0 | 0.0 | 0.00 | 0.00 | 0.00 | 96 | 1015.9 |
| 20260906064204 | 20 | 0 | 0.0 | 0.0 | 0.00 | 0.00 | 0.00 | 96 | 1015.9 |
| 20260906064003 | 20 | 0 | 0.0 | 0.0 | 0.00 | 0.00 | 0.00 | 96 | 1015.6 |
| 20260906063804 | 20 | 0 | 0.0 | 0.0 | 0.00 | 0.00 | 0.00 | 96 | 1015.7 |
| 20260906063603 | 20 | 0 | 0.0 | 0.0 | 0.00 | 0.00 | 0.00 | 96 | 1015.8 |
| 20260906063403 | 20 | 0 | 0.0 | 0.0 | 0.00 | 0.00 | 0.00 | 96 | 1015.5 |
| 20260906063204 | 20 | 0 | 0.0 | 0.0 | 0.00 | 0.00 | 0.00 | 96 | 1015.6 |
| 20260906063003 | 20 | 0 | 0.0 | 0.0 | 0.00 | 0.00 | 0.00 | 96 | 1015.5 |
| 20260906062804 | 20 | 0 | 0.0 | 0.0 | 0.00 | 0.00 | 0.00 | 96 | 1015.5 |
| 20260906062604 | 20 | 0 | 0.0 | 0.0 | 0.00 | 0.00 | 0.00 | 96 | 1015.6 |
| 20260906062404 | 20 | 0 | 0.0 | 0.0 | 0.00 | 0.00 | 0.00 | 96 | 1015.5 |
| 20260906062204 | 20 | 0 | 0.0 | 0.0 | 0.00 | 0.00 | 0.00 | 96 | 1015.7 |
| 20260906062003 | 20 | 0 | 0.0 | 0.0 | 0.00 | 0.00 | 0.00 | 96 | 1015.7 |
| 20260906061603 | 20 | 0 | 0.0 | 0.0 | 0.00 | 0.00 | 0.00 | 96 | 1015.8 |
| 20260906061404 | 19 | 0 | 0.0 | 0.0 | 0.00 | 0.00 | 0.00 | 96 | 1015.8 |
| 20260906061204 | 19 | 0 | 0.0 | 0.0 | 0.00 | 0.00 | 0.00 | 96 | 1015.7 |
| 20260906061003 | 19 | 0 | 0.0 | 0.0 | 0.00 | 0.00 | 0.00 | 96 | 1015.8 |
| 20260906060804 | 19 | 0 | 0.0 | 0.0 | 0.00 | 0.00 | 0.00 | 96 | 1015.7 |
| 20260906060603 | 19 | 0 | 0.0 | 0.0 | 0.00 | 0.00 | 0.00 | 96 | 1015.9 |
| 20260906060403 | 19 | 0 | 0.0 | 0.0 | 0.00 | 0.00 | 0.00 | 96 | 1015.7 |
| 20260906060204 | 19 | 0 | 0.0 | 0.0 | 0.00 | 0.00 | 0.00 | 96 | 1015.9 |
| 20260906055804 | 19 | 301 | 1.6 | 4.8 | 0.00 | 0.00 | 0.00 | 96 | 1015.8 |
| 20260906055603 | 19 | 305 | 1.6 | 4.8 | 0.00 | 0.00 | 0.00 | 96 | 1015.9 |
| 20260906055403 | 19 | 302 | 3.2 | 4.8 | 0.00 | 0.00 | 0.00 | 96 | 1016.0 |
| 20260906055204 | 19 | 302 | 3.2 | 4.8 | 0.00 | 0.00 | 0.00 | 96 | 1016.0 |
| 20260906055003 | 19 | 303 | 3.2 | 4.8 | 0.00 | 0.00 | 0.00 | 96 | 1016.1 |
| 20260906054603 | 19 | 305 | 3.2 | 4.8 | 0.00 | 0.00 | 0.00 | 95 | 1016.1 |
| 20260906054403 | 19 | 326 | 1.6 | 4.8 | 0.00 | 0.00 | 0.00 | 95 | 1016.2 |
| 20260906054204 | 19 | 340 | 1.6 | 4.8 | 0.00 | 0.00 | 0.00 | 95 | 1016.1 |
| 20260906054004 | 19 | 1 | 1.6 | 3.2 | 0.00 | 0.00 | 0.00 | 95 | 1016.2 |
| 20260906053803 | 19 | 357 | 1.6 | 3.2 | 0.00 | 0.00 | 0.00 | 95 | 1016.2 |
| 20260906053604 | 19 | 345 | 1.6 | 3.2 | 0.00 | 0.00 | 0.00 | 95 | 1016.2 |
| 20260906053403 | 19 | 322 | 1.6 | 3.2 | 0.00 | 0.00 | 0.00 | 95 | 1016.2 |
| 20260906053204 | 19 | 319 | 1.6 | 3.2 | 0.00 | 0.00 | 0.00 | 95 | 1016.1 |
| 20260906053004 | 20 | 319 | 1.6 | 3.2 | 0.00 | 0.00 | 0.00 | 94 | 1016.2 |
| 20260906052803 | 20 | 322 | 0.0 | 3.2 | 0.00 | 0.00 | 0.00 | 94 | 1016.2 |
| 20260906052604 | 20 | 312 | 1.6 | 4.8 | 0.00 | 0.00 | 0.00 | 94 | 1016.0 |
| 20260906052403 | 20 | 295 | 1.6 | 4.8 | 0.00 | 0.00 | 0.00 | 94 | 1016.2 |
| 20260906052203 | 20 | 295 | 1.6 | 4.8 | 0.00 | 0.00 | 0.00 | 94 | 1016.2 |
| 20260906051803 | 20 | 294 | 1.6 | 4.8 | 0.00 | 0.00 | 0.00 | 93 | 1016.2 |
| 20260906051003 | 20 | 314 | 0.0 | 3.2 | 0.00 | 0.00 | 0.00 | 92 | 1016.5 |
| 20260906050803 | 20 | 288 | 1.6 | 4.8 | 0.00 | 0.00 | 0.00 | 92 | 1016.5 |
| 20260906050403 | 20 | 267 | 1.6 | 4.8 | 0.00 | 0.00 | 0.00 | 91 | 1016.4 |
| 20260906050204 | 20 | 277 | 1.6 | 4.8 | 0.00 | 0.00 | 0.00 | 91 | 1016.5 |
| 20260906050004 | 20 | 286 | 3.2 | 4.8 | 0.00 | 0.00 | 0.00 | 91 | 1016.5 |
| 20260906045803 | 20 | 338 | 3.2 | 4.8 | 0.00 | 0.00 | 0.00 | 91 | 1016.5 |
| 20260906045604 | 20 | 68 | 3.2 | 4.8 | 0.00 | 0.00 | 0.00 | 90 | 1016.4 |
| 20260906045403 | 20 | 51 | 3.2 | 4.8 | 0.00 | 0.00 | 0.00 | 90 | 1016.4 |
| 20260906045204 | 20 | 74 | 1.6 | 4.8 | 0.00 | 0.00 | 0.00 | 90 | 1016.4 |
| 20260906045003 | 20 | 88 | 1.6 | 4.8 | 0.00 | 0.00 | 0.00 | 90 | 1016.5 |
| 20260906044803 | 20 | 46 | 1.6 | 4.8 | 0.00 | 0.00 | 0.00 | 90 | 1016.5 |
| 20260906044004 | 20 | 286 | 1.6 | 4.8 | 0.00 | 0.00 | 0.00 | 90 | 1016.3 |
| 20260906043804 | 20 | 282 | 1.6 | 4.8 | 0.00 | 0.00 | 0.00 | 89 | 1016.4 |
| 20260906043603 | 20 | 293 | 1.6 | 4.8 | 0.00 | 0.00 | 0.00 | 89 | 1016.2 |
| 20260906043404 | 20 | 301 | 0.0 | 3.2 | 0.00 | 0.00 | 0.00 | 89 | 1016.3 |
| 20260906043203 | 20 | 270 | 0.0 | 3.2 | 0.00 | 0.00 | 0.00 | 89 | 1016.3 |
| 20260906043004 | 20 | 270 | 1.6 | 3.2 | 0.00 | 0.00 | 0.00 | 89 | 1016.3 |
| 20260906042804 | 20 | 270 | 1.6 | 3.2 | 0.00 | 0.00 | 0.00 | 90 | 1016.4 |
| 20260906042603 | 20 | 280 | 1.6 | 3.2 | 0.00 | 0.00 | 0.00 | 90 | 1016.3 |
| 20260906042404 | 20 | 286 | 1.6 | 3.2 | 0.00 | 0.00 | 0.00 | 90 | 1016.3 |
| 20260906042204 | 20 | 320 | 1.6 | 3.2 | 0.00 | 0.00 | 0.00 | 91 | 1016.3 |
| 20260906042003 | 20 | 342 | 1.6 | 3.2 | 0.00 | 0.00 | 0.00 | 91 | 1016.3 |
| 20260906041804 | 20 | 333 | 1.6 | 3.2 | 0.00 | 0.00 | 0.00 | 91 | 1016.4 |
| 20260906041603 | 20 | 326 | 1.6 | 3.2 | 0.00 | 0.00 | 0.00 | 91 | 1016.5 |
| 20260906041403 | 20 | 322 | 3.2 | 3.2 | 0.00 | 0.00 | 0.00 | 91 | 1016.5 |
| 20260906041204 | 20 | 317 | 3.2 | 3.2 | 0.00 | 0.00 | 0.00 | 91 | 1016.5 |
| 20260906041003 | 20 | 315 | 1.6 | 3.2 | 0.00 | 0.00 | 0.00 | 91 | 1016.6 |
| 20260906040804 | 20 | 320 | 1.6 | 3.2 | 0.00 | 0.00 | 0.00 | 91 | 1016.5 |
| 20260906040403 | 20 | 325 | 1.6 | 3.2 | 0.00 | 0.00 | 0.00 | 91 | 1016.6 |
| 20260906040204 | 20 | 325 | 1.6 | 3.2 | 0.00 | 0.00 | 0.00 | 91 | 1016.6 |
| 20260906040004 | 20 | 322 | 3.2 | 3.2 | 0.00 | 0.00 | 0.00 | 91 | 1016.4 |
| 20260906035803 | 20 | 319 | 3.2 | 4.8 | 0.00 | 0.00 | 0.00 | 91 | 1016.4 |
| 20260906035604 | 20 | 315 | 3.2 | 4.8 | 0.00 | 0.00 | 0.00 | 91 | 1016.5 |
| 20260906035403 | 20 | 314 | 1.6 | 4.8 | 0.00 | 0.00 | 0.00 | 91 | 1016.6 |
| 20260906035003 | 20 | 300 | 1.6 | 4.8 | 0.00 | 0.00 | 0.00 | 90 | 1016.6 |
| 20260906034804 | 20 | 293 | 1.6 | 3.2 | 0.00 | 0.00 | 0.00 | 90 | 1016.4 |
| 20260906034603 | 20 | 293 | 1.6 | 3.2 | 0.00 | 0.00 | 0.00 | 90 | 1016.5 |
| 20260906034403 | 20 | 290 | 1.6 | 3.2 | 0.00 | 0.00 | 0.00 | 90 | 1016.6 |
| 20260906034204 | 20 | 273 | 0.0 | 3.2 | 0.00 | 0.00 | 0.00 | 90 | 1016.4 |
| 20260906034003 | 20 | 0 | 0.0 | 0.0 | 0.00 | 0.00 | 0.00 | 89 | 1016.4 |
| 20260906033803 | 20 | 225 | 0.0 | 3.2 | 0.00 | 0.00 | 0.00 | 89 | 1016.4 |
| 20260906033604 | 20 | 237 | 1.6 | 3.2 | 0.00 | 0.00 | 0.00 | 89 | 1016.5 |
| 20260906033403 | 20 | 250 | 1.6 | 3.2 | 0.00 | 0.00 | 0.00 | 89 | 1016.4 |
| 20260906033204 | 20 | 250 | 1.6 | 3.2 | 0.00 | 0.00 | 0.00 | 89 | 1016.4 |
| 20260906033003 | 21 | 250 | 1.6 | 3.2 | 0.00 | 0.00 | 0.00 | 89 | 1016.6 |
| 20260906032803 | 21 | 255 | 1.6 | 3.2 | 0.00 | 0.00 | 0.00 | 88 | 1016.7 |
| 20260906032403 | 21 | 314 | 0.0 | 3.2 | 0.00 | 0.00 | 0.00 | 88 | 1016.6 |
| 20260906032203 | 21 | 314 | 1.6 | 3.2 | 0.00 | 0.00 | 0.00 | 88 | 1016.5 |
| 20260906032004 | 21 | 315 | 1.6 | 3.2 | 0.00 | 0.00 | 0.00 | 88 | 1016.5 |
| 20260906031803 | 21 | 314 | 1.6 | 3.2 | 0.00 | 0.00 | 0.00 | 88 | 1016.4 |
| 20260906031603 | 21 | 314 | 3.2 | 3.2 | 0.00 | 0.00 | 0.00 | 89 | 1016.4 |
| 20260906031403 | 21 | 311 | 3.2 | 3.2 | 0.00 | 0.00 | 0.00 | 89 | 1016.5 |
| 20260906031203 | 20 | 315 | 1.6 | 3.2 | 0.00 | 0.00 | 0.00 | 89 | 1016.5 |
| 20260906031004 | 20 | 321 | 1.6 | 3.2 | 0.00 | 0.00 | 0.00 | 89 | 1016.6 |
| 20260906030603 | 20 | 338 | 1.6 | 3.2 | 0.00 | 0.00 | 0.00 | 90 | 1016.4 |
| 20260906030403 | 20 | 340 | 1.6 | 3.2 | 0.00 | 0.00 | 0.00 | 90 | 1016.6 |
| 20260906030203 | 20 | 330 | 3.2 | 4.8 | 0.00 | 0.00 | 0.00 | 90 | 1016.6 |
| 20260906030004 | 20 | 319 | 3.2 | 4.8 | 0.00 | 0.00 | 0.00 | 90 | 1016.5 |
| 20260906025803 | 20 | 314 | 3.2 | 4.8 | 0.00 | 0.00 | 0.00 | 90 | 1016.4 |
| 20260906025603 | 20 | 311 | 4.8 | 4.8 | 0.00 | 0.00 | 0.00 | 90 | 1016.6 |
| 20260906025403 | 20 | 311 | 4.8 | 4.8 | 0.00 | 0.00 | 0.00 | 91 | 1016.4 |
| 20260906025203 | 21 | 311 | 4.8 | 8.0 | 0.00 | 0.00 | 0.00 | 91 | 1016.4 |
| 20260906024404 | 21 | 321 | 3.2 | 8.0 | 0.00 | 0.00 | 0.00 | 91 | 1016.5 |
| 20260906024203 | 21 | 324 | 3.2 | 4.8 | 0.00 | 0.00 | 0.00 | 91 | 1016.5 |
| 20260906024004 | 21 | 329 | 1.6 | 4.8 | 0.00 | 0.00 | 0.00 | 91 | 1016.6 |
| 20260906023804 | 21 | 340 | 1.6 | 4.8 | 0.00 | 0.00 | 0.00 | 91 | 1016.6 |
| 20260906023603 | 21 | 346 | 0.0 | 3.2 | 0.00 | 0.00 | 0.00 | 91 | 1016.7 |
| 20260906023404 | 21 | 0 | 0.0 | 0.0 | 0.00 | 0.00 | 0.00 | 91 | 1016.6 |
| 20260906023203 | 21 | 0 | 0.0 | 0.0 | 0.00 | 0.00 | 0.00 | 91 | 1016.8 |
| 20260906023004 | 21 | 314 | 0.0 | 3.2 | 0.00 | 0.00 | 0.00 | 92 | 1016.6 |
| 20260906022404 | 20 | 282 | 3.2 | 4.8 | 0.00 | 0.00 | 0.00 | 92 | 1016.4 |
| 20260906022203 | 20 | 280 | 3.2 | 4.8 | 0.00 | 0.00 | 0.00 | 92 | 1016.2 |
| 20260906022004 | 20 | 273 | 3.2 | 4.8 | 0.00 | 0.00 | 0.00 | 92 | 1016.2 |
| 20260906021603 | 20 | 293 | 3.2 | 4.8 | 0.00 | 0.00 | 0.00 | 92 | 1016.2 |
| 20260906021404 | 21 | 307 | 3.2 | 4.8 | 0.00 | 0.00 | 0.00 | 92 | 1016.2 |
| 20260906021004 | 21 | 316 | 4.8 | 4.8 | 0.00 | 0.00 | 0.00 | 91 | 1016.3 |
| 20260906020803 | 21 | 319 | 4.8 | 4.8 | 0.00 | 0.00 | 0.00 | 91 | 1016.4 |
| 20260906020603 | 21 | 322 | 4.8 | 4.8 | 0.00 | 0.00 | 0.00 | 91 | 1016.4 |
| 20260906020404 | 21 | 322 | 3.2 | 4.8 | 0.00 | 0.00 | 0.00 | 91 | 1016.3 |
| 20260906020203 | 21 | 322 | 3.2 | 4.8 | 0.00 | 0.00 | 0.00 | 90 | 1016.3 |
| 20260906020004 | 21 | 323 | 3.2 | 4.8 | 0.00 | 0.00 | 0.00 | 90 | 1016.4 |
| 20260906015803 | 21 | 319 | 3.2 | 4.8 | 0.00 | 0.00 | 0.00 | 90 | 1016.4 |
| 20260906015403 | 21 | 314 | 1.6 | 3.2 | 0.00 | 0.00 | 0.00 | 90 | 1016.3 |
| 20260906015203 | 21 | 314 | 1.6 | 3.2 | 0.00 | 0.00 | 0.00 | 90 | 1016.0 |
| 20260906014803 | 21 | 314 | 1.6 | 3.2 | 0.00 | 0.00 | 0.00 | 89 | 1016.1 |
| 20260906014603 | 21 | 337 | 1.6 | 3.2 | 0.00 | 0.00 | 0.00 | 89 | 1016.0 |
| 20260906014404 | 21 | 1 | 0.0 | 3.2 | 0.00 | 0.00 | 0.00 | 89 | 1016.0 |
| 20260906014204 | 21 | 1 | 1.6 | 3.2 | 0.00 | 0.00 | 0.00 | 89 | 1016.0 |
| 20260906014003 | 21 | 1 | 1.6 | 3.2 | 0.00 | 0.00 | 0.00 | 86 | 1016.1 |
| 20260906013804 | 21 | 358 | 1.6 | 3.2 | 0.00 | 0.00 | 0.00 | 85 | 1015.8 |
| 20260906013404 | 21 | 316 | 0.0 | 3.2 | 0.00 | 0.00 | 0.00 | 85 | 1016.1 |
| 20260906013203 | 21 | 307 | 1.6 | 3.2 | 0.00 | 0.00 | 0.00 | 85 | 1015.8 |
| 20260906013003 | 21 | 301 | 1.6 | 3.2 | 0.00 | 0.00 | 0.00 | 85 | 1016.0 |
| 20260906012804 | 21 | 301 | 1.6 | 3.2 | 0.00 | 0.00 | 0.00 | 84 | 1015.9 |
| 20260906012603 | 21 | 293 | 1.6 | 3.2 | 0.00 | 0.00 | 0.00 | 84 | 1015.8 |
| 20260906012404 | 21 | 289 | 1.6 | 3.2 | 0.00 | 0.00 | 0.00 | 83 | 1015.8 |
| 20260906012203 | 21 | 293 | 0.0 | 3.2 | 0.00 | 0.00 | 0.00 | 83 | 1015.8 |
| 20260906012003 | 21 | 314 | 0.0 | 1.6 | 0.00 | 0.00 | 0.00 | 83 | 1015.7 |
| 20260906011804 | 21 | 314 | 0.0 | 1.6 | 0.00 | 0.00 | 0.00 | 83 | 1015.8 |
| 20260906011403 | 21 | 314 | 0.0 | 3.2 | 0.00 | 0.00 | 0.00 | 83 | 1015.8 |
| 20260906011204 | 21 | 314 | 0.0 | 3.2 | 0.00 | 0.00 | 0.00 | 83 | 1015.5 |
| 20260906010804 | 21 | 314 | 0.0 | 3.2 | 0.00 | 0.00 | 0.00 | 82 | 1015.7 |
| 20260906010603 | 21 | 314 | 0.0 | 3.2 | 0.00 | 0.00 | 0.00 | 82 | 1015.8 |
| 20260906010204 | 22 | 314 | 0.0 | 3.2 | 0.00 | 0.00 | 0.00 | 82 | 1015.6 |
| 20260906010004 | 22 | 314 | 1.6 | 4.8 | 0.00 | 0.00 | 0.00 | 82 | 1015.7 |
| 20260906005603 | 22 | 314 | 1.6 | 4.8 | 0.00 | 0.00 | 0.00 | 82 | 1015.5 |
| 20260906005404 | 22 | 315 | 1.6 | 4.8 | 0.00 | 0.00 | 0.00 | 82 | 1015.5 |
| 20260906005203 | 22 | 331 | 1.6 | 4.8 | 0.00 | 0.00 | 0.00 | 82 | 1015.4 |
| 20260906005003 | 22 | 355 | 0.0 | 4.8 | 0.00 | 0.00 | 0.00 | 82 | 1015.4 |
| 20260906004603 | 22 | 1 | 0.0 | 3.2 | 0.00 | 0.00 | 0.00 | 82 | 1015.4 |
| 20260906004403 | 22 | 1 | 0.0 | 3.2 | 0.00 | 0.00 | 0.00 | 82 | 1015.4 |
| 20260906004203 | 22 | 1 | 0.0 | 3.2 | 0.00 | 0.00 | 0.00 | 82 | 1015.3 |
| 20260906004003 | 22 | 0 | 0.0 | 0.0 | 0.00 | 0.00 | 0.00 | 82 | 1015.4 |
| 20260906003804 | 22 | 314 | 0.0 | 1.6 | 0.00 | 0.00 | 0.00 | 81 | 1015.4 |
| 20260906003604 | 22 | 340 | 0.0 | 1.6 | 0.00 | 0.00 | 0.00 | 81 | 1015.4 |
| 20260906003403 | 22 | 339 | 0.0 | 1.6 | 0.00 | 0.00 | 0.00 | 81 | 1015.5 |
| 20260906003203 | 22 | 342 | 0.0 | 1.6 | 0.00 | 0.00 | 0.00 | 81 | 1015.3 |
| 20260906003004 | 22 | 342 | 0.0 | 1.6 | 0.00 | 0.00 | 0.00 | 81 | 1015.5 |
| 20260906002803 | 22 | 343 | 0.0 | 1.6 | 0.00 | 0.00 | 0.00 | 81 | 1015.6 |
| 20260906002603 | 22 | 344 | 0.0 | 1.6 | 0.00 | 0.00 | 0.00 | 81 | 1015.6 |
| 20260906002403 | 22 | 1 | 0.0 | 1.6 | 0.00 | 0.00 | 0.00 | 81 | 1015.4 |
| 20260906002203 | 22 | 0 | 0.0 | 0.0 | 0.00 | 0.00 | 0.00 | 81 | 1015.6 |
| 20260906002004 | 22 | 0 | 0.0 | 0.0 | 0.00 | 0.00 | 0.00 | 80 | 1015.7 |
| 20260906001804 | 22 | 0 | 0.0 | 0.0 | 0.00 | 0.00 | 0.00 | 80 | 1015.6 |
| 20260906001203 | 22 | 337 | 0.0 | 3.2 | 0.00 | 0.00 | 0.00 | 81 | 1015.5 |
| 20260906001004 | 23 | 328 | 0.0 | 3.2 | 0.00 | 0.00 | 0.00 | 81 | 1015.7 |
| 20260906000803 | 23 | 324 | 1.6 | 3.2 | 0.00 | 0.00 | 0.00 | 81 | 1015.6 |
| 20260906000603 | 23 | 301 | 1.6 | 3.2 | 0.00 | 0.00 | 0.00 | 81 | 1015.6 |
| 20260906000404 | 23 | 293 | 1.6 | 3.2 | 0.00 | 0.00 | 0.00 | 80 | 1015.7 |
| 20260905235803 | 23 | 270 | 1.6 | 3.2 | 0.00 | 0.00 | 0.00 | 80 | 1015.7 |
| 20260905235604 | 23 | 270 | 0.0 | 3.2 | 0.00 | 0.00 | 0.00 | 80 | 1015.8 |
| 20260905235403 | 23 | 270 | 0.0 | 3.2 | 0.00 | 0.00 | 0.00 | 80 | 1015.9 |
| 20260905235204 | 23 | 270 | 0.0 | 3.2 | 0.00 | 0.00 | 0.00 | 80 | 1015.8 |
| 20260905235004 | 23 | 270 | 0.0 | 3.2 | 0.00 | 0.00 | 0.00 | 80 | 1015.8 |
| 20260905234804 | 23 | 270 | 0.0 | 3.2 | 0.00 | 0.00 | 0.00 | 80 | 1015.4 |
| 20260905234604 | 23 | 270 | 0.0 | 3.2 | 0.00 | 0.00 | 0.00 | 80 | 1015.5 |
| 20260905234203 | 23 | 0 | 0.0 | 0.0 | 0.00 | 0.00 | 0.00 | 80 | 1015.3 |
| 20260905234004 | 23 | 1 | 0.0 | 3.2 | 0.00 | 0.00 | 0.00 | 80 | 1015.4 |
| 20260905233803 | 23 | 1 | 1.6 | 3.2 | 0.00 | 0.00 | 0.00 | 80 | 1015.4 |
| 20260905233603 | 23 | 1 | 1.6 | 3.2 | 0.00 | 0.00 | 0.00 | 79 | 1015.4 |
| 20260905233203 | 24 | 1 | 1.6 | 3.2 | 0.00 | 0.00 | 0.00 | 79 | 1015.4 |
| 20260905233003 | 24 | 1 | 0.0 | 3.2 | 0.00 | 0.00 | 0.00 | 79 | 1015.4 |
| 20260905232804 | 24 | 1 | 0.0 | 3.2 | 0.00 | 0.00 | 0.00 | 78 | 1015.3 |
| 20260905232603 | 24 | 0 | 0.0 | 0.0 | 0.00 | 0.00 | 0.00 | 78 | 1015.3 |
| 20260905232403 | 24 | 0 | 0.0 | 0.0 | 0.00 | 0.00 | 0.00 | 77 | 1015.4 |
| 20260905232204 | 24 | 1 | 0.0 | 3.2 | 0.00 | 0.00 | 0.00 | 77 | 1015.4 |
| 20260905232003 | 24 | 1 | 1.6 | 3.2 | 0.00 | 0.00 | 0.00 | 77 | 1015.4 |
| 20260905231604 | 24 | 354 | 1.6 | 3.2 | 0.00 | 0.00 | 0.00 | 76 | 1015.4 |
| 20260905231403 | 24 | 354 | 1.6 | 3.2 | 0.00 | 0.00 | 0.00 | 76 | 1015.3 |
| 20260905231203 | 24 | 353 | 1.6 | 3.2 | 0.00 | 0.00 | 0.00 | 76 | 1015.3 |
| 20260905230803 | 25 | 1 | 0.0 | 3.2 | 0.00 | 0.00 | 0.00 | 75 | 1015.2 |
| 20260905230203 | 25 | 0 | 0.0 | 0.0 | 0.00 | 0.00 | 0.00 | 74 | 1015.4 |
| 20260905230004 | 25 | 0 | 0.0 | 0.0 | 0.00 | 0.00 | 0.00 | 74 | 1015.5 |
| 20260905225803 | 25 | 0 | 0.0 | 0.0 | 0.00 | 0.00 | 0.00 | 74 | 1015.6 |
| 20260905225403 | 25 | 0 | 0.0 | 0.0 | 0.00 | 0.00 | 0.00 | 73 | 1015.5 |
| 20260905225203 | 25 | 0 | 0.0 | 0.0 | 0.00 | 0.00 | 0.00 | 73 | 1015.4 |
| 20260905225004 | 25 | 1 | 0.0 | 1.6 | 0.00 | 0.00 | 0.00 | 72 | 1015.4 |
| 20260905224803 | 25 | 1 | 0.0 | 1.6 | 0.00 | 0.00 | 0.00 | 72 | 1015.4 |
| 20260905224603 | 25 | 1 | 0.0 | 1.6 | 0.00 | 0.00 | 0.00 | 72 | 1015.4 |
| 20260905224404 | 25 | 1 | 0.0 | 1.6 | 0.00 | 0.00 | 0.00 | 72 | 1015.4 |
| 20260905224203 | 25 | 336 | 0.0 | 1.6 | 0.00 | 0.00 | 0.00 | 72 | 1015.4 |
| 20260905224004 | 25 | 311 | 0.0 | 1.6 | 0.00 | 0.00 | 0.00 | 72 | 1015.4 |
| 20260905223803 | 25 | 90 | 0.0 | 3.2 | 0.00 | 0.00 | 0.00 | 72 | 1015.3 |
| 20260905223403 | 25 | 117 | 1.6 | 3.2 | 0.00 | 0.00 | 0.00 | 72 | 1015.4 |
| 20260905223203 | 25 | 114 | 1.6 | 3.2 | 0.00 | 0.00 | 0.00 | 72 | 1015.3 |
| 20260905223004 | 25 | 113 | 1.6 | 3.2 | 0.00 | 0.00 | 0.00 | 71 | 1015.2 |
| 20260905222803 | 26 | 122 | 1.6 | 3.2 | 0.00 | 0.00 | 0.00 | 71 | 1015.2 |
| 20260905222604 | 26 | 135 | 0.0 | 3.2 | 0.00 | 0.00 | 0.00 | 71 | 1015.4 |
| 20260905222203 | 26 | 80 | 0.0 | 4.8 | 0.00 | 0.00 | 0.00 | 67 | 1015.3 |
| 20260905222004 | 26 | 87 | 1.6 | 4.8 | 0.00 | 0.00 | 0.00 | 67 | 1015.4 |
| 20260905221803 | 26 | 88 | 1.6 | 4.8 | 0.00 | 0.00 | 0.00 | 67 | 1015.3 |
| 20260905221603 | 26 | 86 | 3.2 | 4.8 | 0.00 | 0.00 | 0.00 | 67 | 1015.4 |
| 20260905221403 | 26 | 87 | 3.2 | 4.8 | 0.00 | 0.00 | 0.00 | 67 | 1015.4 |
| 20260905221203 | 27 | 87 | 3.2 | 4.8 | 0.00 | 0.00 | 0.00 | 66 | 1015.4 |
| 20260905221004 | 27 | 74 | 3.2 | 4.8 | 0.00 | 0.00 | 0.00 | 65 | 1015.5 |
| 20260905220604 | 27 | 59 | 3.2 | 4.8 | 0.00 | 0.00 | 0.00 | 64 | 1015.4 |
| 20260905220403 | 27 | 37 | 3.2 | 4.8 | 0.00 | 0.00 | 0.00 | 63 | 1015.4 |
| 20260905220203 | 27 | 3 | 3.2 | 4.8 | 0.00 | 0.00 | 0.00 | 63 | 1015.5 |
| 20260905220004 | 27 | 318 | 1.6 | 4.8 | 0.00 | 0.00 | 0.00 | 63 | 1015.5 |
| 20260905215603 | 27 | 309 | 1.6 | 4.8 | 0.00 | 0.00 | 0.00 | 62 | 1015.6 |
| 20260905215203 | 28 | 87 | 3.2 | 4.8 | 0.00 | 0.00 | 0.00 | 60 | 1015.6 |
| 20260905215004 | 28 | 88 | 3.2 | 4.8 | 0.00 | 0.00 | 0.00 | 60 | 1015.4 |
| 20260905214603 | 28 | 69 | 3.2 | 4.8 | 0.00 | 0.00 | 0.00 | 60 | 1015.3 |
| 20260905214403 | 28 | 60 | 3.2 | 8.0 | 0.00 | 0.00 | 0.00 | 60 | 1015.4 |
| 20260905214203 | 28 | 62 | 3.2 | 8.0 | 0.00 | 0.00 | 0.00 | 60 | 1015.4 |
| 20260905214004 | 28 | 65 | 3.2 | 8.0 | 0.00 | 0.00 | 0.00 | 60 | 1015.5 |
| 20260905213803 | 28 | 70 | 4.8 | 8.0 | 0.00 | 0.00 | 0.00 | 60 | 1015.3 |
| 20260905213603 | 28 | 79 | 4.8 | 8.0 | 0.00 | 0.00 | 0.00 | 60 | 1015.6 |
| 20260905213403 | 28 | 84 | 4.8 | 8.0 | 0.00 | 0.00 | 0.00 | 61 | 1015.7 |
| 20260905213203 | 28 | 85 | 4.8 | 8.0 | 0.00 | 0.00 | 0.00 | 62 | 1015.7 |
| 20260905213004 | 28 | 90 | 3.2 | 8.0 | 0.00 | 0.00 | 0.00 | 62 | 1015.7 |
| 20260905212803 | 28 | 87 | 3.2 | 8.0 | 0.00 | 0.00 | 0.00 | 62 | 1015.6 |
| 20260905212603 | 27 | 74 | 3.2 | 8.0 | 0.00 | 0.00 | 0.00 | 62 | 1015.7 |
| 20260905212403 | 27 | 68 | 3.2 | 3.2 | 0.00 | 0.00 | 0.00 | 63 | 1015.5 |
| 20260905212203 | 27 | 68 | 3.2 | 8.0 | 0.00 | 0.00 | 0.00 | 64 | 1015.7 |
| 20260905211403 | 26 | 79 | 3.2 | 8.0 | 0.00 | 0.00 | 0.00 | 68 | 1015.9 |
| 20260905211203 | 26 | 73 | 1.6 | 8.0 | 0.00 | 0.00 | 0.00 | 67 | 1016.1 |
| 20260905211003 | 26 | 70 | 1.6 | 3.2 | 0.00 | 0.00 | 0.00 | 69 | 1016.1 |
| 20260905210803 | 26 | 53 | 0.0 | 3.2 | 0.00 | 0.00 | 0.00 | 71 | 1016.1 |
| 20260905210603 | 26 | 181 | 0.0 | 1.6 | 0.00 | 0.00 | 0.00 | 71 | 1016.2 |
| 20260905210403 | 26 | 181 | 0.0 | 1.6 | 0.00 | 0.00 | 0.00 | 71 | 1016.1 |
| 20260905210203 | 26 | 181 | 0.0 | 1.6 | 0.00 | 0.00 | 0.00 | 71 | 1015.9 |
| 20260905210004 | 26 | 181 | 0.0 | 1.6 | 0.00 | 0.00 | 0.00 | 66 | 1016.1 |
| 20260905205603 | 26 | 6 | 1.6 | 4.8 | 0.00 | 0.00 | 0.00 | 65 | 1015.8 |
| 20260905205403 | 26 | 353 | 1.6 | 4.8 | 0.00 | 0.00 | 0.00 | 64 | 1016.0 |
| 20260905205003 | 27 | 353 | 1.6 | 4.8 | 0.00 | 0.00 | 0.00 | 62 | 1015.8 |
| 20260905204803 | 27 | 346 | 1.6 | 4.8 | 0.00 | 0.00 | 0.00 | 62 | 1015.9 |
| 20260905204603 | 27 | 338 | 1.6 | 4.8 | 0.00 | 0.00 | 0.00 | 61 | 1015.9 |
| 20260905204403 | 27 | 1 | 1.6 | 4.8 | 0.00 | 0.00 | 0.00 | 61 | 1015.9 |
| 20260905204203 | 27 | 354 | 1.6 | 8.0 | 0.00 | 0.00 | 0.00 | 60 | 1015.7 |
| 20260905204004 | 27 | 6 | 1.6 | 8.0 | 0.00 | 0.00 | 0.00 | 60 | 1015.7 |
| 20260905203404 | 27 | 37 | 3.2 | 8.0 | 0.00 | 0.00 | 0.00 | 60 | 1015.8 |
| 20260905203203 | 28 | 56 | 3.2 | 4.8 | 0.00 | 0.00 | 0.00 | 60 | 1015.9 |
| 20260905203004 | 28 | 60 | 3.2 | 9.7 | 0.00 | 0.00 | 0.00 | 60 | 1015.7 |
| 20260905202803 | 28 | 55 | 3.2 | 9.7 | 0.00 | 0.00 | 0.00 | 58 | 1015.7 |
| 20260905202603 | 28 | 49 | 3.2 | 9.7 | 0.00 | 0.00 | 0.00 | 57 | 1015.6 |
| 20260905202404 | 28 | 49 | 4.8 | 9.7 | 0.00 | 0.00 | 0.00 | 57 | 1015.6 |
| 20260905202203 | 28 | 46 | 4.8 | 9.7 | 0.00 | 0.00 | 0.00 | 57 | 1015.7 |
| 20260905201803 | 29 | 29 | 3.2 | 4.8 | 0.00 | 0.00 | 0.00 | 56 | 1015.7 |
| 20260905201404 | 30 | 25 | 3.2 | 4.8 | 0.00 | 0.00 | 0.00 | 54 | 1016.1 |
| 20260905201004 | 30 | 62 | 3.2 | 8.0 | 0.00 | 0.00 | 0.00 | 52 | 1016.0 |
| 20260905200803 | 30 | 81 | 3.2 | 8.0 | 0.00 | 0.00 | 0.00 | 51 | 1015.9 |
| 20260905200603 | 30 | 92 | 3.2 | 8.0 | 0.00 | 0.00 | 0.00 | 50 | 1016.1 |
| 20260905200404 | 31 | 92 | 4.8 | 8.0 | 0.00 | 0.00 | 0.00 | 50 | 1016.3 |
| 20260905200003 | 31 | 90 | 4.8 | 8.0 | 0.00 | 0.00 | 0.00 | 45 | 1016.4 |
| 20260905195803 | 32 | 90 | 4.8 | 8.0 | 0.00 | 0.00 | 0.00 | 44 | 1016.5 |
| 20260905195604 | 32 | 90 | 4.8 | 8.0 | 0.00 | 0.00 | 0.00 | 41 | 1016.3 |
| 20260905195403 | 33 | 90 | 4.8 | 9.7 | 0.00 | 0.00 | 0.00 | 41 | 1016.4 |
| 20260905195203 | 33 | 92 | 6.4 | 9.7 | 0.00 | 0.00 | 0.00 | 41 | 1016.4 |
| 20260905195004 | 34 | 93 | 6.4 | 9.7 | 0.00 | 0.00 | 0.00 | 40 | 1016.5 |
| 20260905194803 | 35 | 88 | 4.8 | 9.7 | 0.00 | 0.00 | 0.00 | 40 | 1016.5 |
| 20260905194603 | 35 | 69 | 4.8 | 9.7 | 0.00 | 0.00 | 0.00 | 40 | 1016.5 |
| 20260905194404 | 35 | 30 | 4.8 | 9.7 | 0.00 | 0.00 | 0.00 | 40 | 1016.4 |
| 20260905194203 | 35 | 37 | 4.8 | 11.3 | 0.00 | 0.00 | 0.00 | 40 | 1016.2 |
| 20260905194004 | 35 | 50 | 6.4 | 11.3 | 0.00 | 0.00 | 0.00 | 40 | 1016.3 |
| 20260905193803 | 35 | 68 | 6.4 | 11.3 | 0.00 | 0.00 | 0.00 | 38 | 1016.5 |
| 20260905193603 | 36 | 81 | 6.4 | 11.3 | 0.00 | 0.00 | 0.00 | 38 | 1016.3 |
| 20260905193403 | 36 | 84 | 6.4 | 11.3 | 0.00 | 0.00 | 0.00 | 40 | 1016.5 |
| 20260905193203 | 36 | 72 | 6.4 | 11.3 | 0.00 | 0.00 | 0.00 | 35 | 1016.2 |
| 20260905193004 | 36 | 65 | 6.4 | 11.3 | 0.00 | 0.00 | 0.00 | 35 | 1016.2 |
| 20260905192803 | 36 | 44 | 4.8 | 8.0 | 0.00 | 0.00 | 0.00 | 35 | 1016.1 |
| 20260905192603 | 36 | 12 | 4.8 | 9.7 | 0.00 | 0.00 | 0.00 | 35 | 1016.2 |
| 20260905192403 | 36 | 354 | 4.8 | 9.7 | 0.00 | 0.00 | 0.00 | 34 | 1015.9 |
| 20260905192203 | 36 | 342 | 4.8 | 9.7 | 0.00 | 0.00 | 0.00 | 38 | 1015.9 |
| 20260905192004 | 36 | 344 | 4.8 | 9.7 | 0.00 | 0.00 | 0.00 | 40 | 1016.1 |
| 20260905191803 | 35 | 351 | 4.8 | 9.7 | 0.00 | 0.00 | 0.00 | 40 | 1016.2 |
| 20260905191603 | 35 | 35 | 4.8 | 8.0 | 0.00 | 0.00 | 0.00 | 40 | 1016.3 |
| 20260905191204 | 34 | 80 | 4.8 | 8.0 | 0.00 | 0.00 | 0.00 | 41 | 1016.5 |
| 20260905191003 | 34 | 76 | 4.8 | 8.0 | 0.00 | 0.00 | 0.00 | 41 | 1016.5 |
| 20260905190804 | 33 | 72 | 4.8 | 9.7 | 0.00 | 0.00 | 0.00 | 40 | 1016.7 |
| 20260905190603 | 34 | 72 | 4.8 | 12.9 | 0.00 | 0.00 | 0.00 | 40 | 1016.6 |
| 20260905190403 | 35 | 78 | 6.4 | 12.9 | 0.00 | 0.00 | 0.00 | 38 | 1016.7 |
| 20260905190004 | 36 | 88 | 9.7 | 16.1 | 0.00 | 0.00 | 0.00 | 37 | 1016.8 |
| 20260905185803 | 36 | 90 | 11.3 | 17.7 | 0.00 | 0.00 | 0.00 | 33 | 1016.9 |
| 20260905185603 | 36 | 90 | 11.3 | 17.7 | 0.00 | 0.00 | 0.00 | 33 | 1017.0 |
| 20260905185403 | 36 | 89 | 11.3 | 17.7 | 0.00 | 0.00 | 0.00 | 34 | 1016.9 |
| 20260905185203 | 37 | 80 | 9.7 | 17.7 | 0.00 | 0.00 | 0.00 | 33 | 1017.0 |
| 20260905185004 | 37 | 73 | 9.7 | 17.7 | 0.00 | 0.00 | 0.00 | 35 | 1016.8 |
| 20260905184803 | 37 | 68 | 8.0 | 17.7 | 0.00 | 0.00 | 0.00 | 37 | 1016.7 |
| 20260905184603 | 37 | 53 | 8.0 | 12.9 | 0.00 | 0.00 | 0.00 | 38 | 1016.6 |
| 20260905184404 | 36 | 57 | 8.0 | 12.9 | 0.00 | 0.00 | 0.00 | 37 | 1016.5 |
| 20260905184204 | 36 | 65 | 8.0 | 12.9 | 0.00 | 0.00 | 0.00 | 37 | 1016.4 |
| 20260905184003 | 36 | 68 | 8.0 | 12.9 | 0.00 | 0.00 | 0.00 | 35 | 1016.3 |
| 20260905183804 | 37 | 66 | 8.0 | 12.9 | 0.00 | 0.00 | 0.00 | 35 | 1016.3 |
| 20260905183603 | 37 | 69 | 6.4 | 12.9 | 0.00 | 0.00 | 0.00 | 36 | 1016.4 |
| 20260905183403 | 37 | 52 | 6.4 | 12.9 | 0.00 | 0.00 | 0.00 | 35 | 1016.5 |
| 20260905183203 | 37 | 65 | 6.4 | 12.9 | 0.00 | 0.00 | 0.00 | 36 | 1016.4 |
| 20260905183004 | 37 | 73 | 6.4 | 9.7 | 0.00 | 0.00 | 0.00 | 37 | 1016.5 |
| 20260905182803 | 37 | 66 | 6.4 | 11.3 | 0.00 | 0.00 | 0.00 | 38 | 1016.5 |
| 20260905182604 | 37 | 43 | 6.4 | 11.3 | 0.00 | 0.00 | 0.00 | 39 | 1016.6 |
| 20260905182403 | 37 | 38 | 6.4 | 11.3 | 0.00 | 0.00 | 0.00 | 40 | 1016.4 |
| 20260905182004 | 37 | 2 | 6.4 | 12.9 | 0.00 | 0.00 | 0.00 | 37 | 1016.7 |
| 20260905181803 | 37 | 2 | 6.4 | 12.9 | 0.00 | 0.00 | 0.00 | 38 | 1016.8 |
| 20260905181603 | 36 | 11 | 6.4 | 12.9 | 0.00 | 0.00 | 0.00 | 39 | 1016.7 |
| 20260905181203 | 36 | 359 | 6.4 | 12.9 | 0.00 | 0.00 | 0.00 | 41 | 1016.6 |
| 20260905180603 | 36 | 334 | 6.4 | 9.7 | 0.00 | 0.00 | 0.00 | 40 | 1016.8 |
| 20260905180404 | 36 | 350 | 6.4 | 9.7 | 0.00 | 0.00 | 0.00 | 42 | 1016.8 |
| 20260905180203 | 36 | 5 | 6.4 | 9.7 | 0.00 | 0.00 | 0.00 | 43 | 1016.8 |
| 20260905175803 | 36 | 51 | 6.4 | 9.7 | 0.00 | 0.00 | 0.00 | 42 | 1016.9 |
| 20260905175604 | 36 | 74 | 8.0 | 16.1 | 0.00 | 0.00 | 0.00 | 43 | 1016.9 |
| 20260905175403 | 36 | 55 | 8.0 | 16.1 | 0.00 | 0.00 | 0.00 | 42 | 1016.7 |
| 20260905175203 | 35 | 80 | 8.0 | 16.1 | 0.00 | 0.00 | 0.00 | 44 | 1017.0 |
| 20260905174803 | 35 | 332 | 8.0 | 16.1 | 0.00 | 0.00 | 0.00 | 42 | 1016.9 |
| 20260905174603 | 35 | 328 | 6.4 | 14.5 | 0.00 | 0.00 | 0.00 | 42 | 1016.9 |
| 20260905174403 | 35 | 316 | 6.4 | 14.5 | 0.00 | 0.00 | 0.00 | 41 | 1016.9 |
| 20260905174003 | 36 | 343 | 8.0 | 16.1 | 0.00 | 0.00 | 0.00 | 43 | 1016.9 |
| 20260905173804 | 35 | 335 | 9.7 | 16.1 | 0.00 | 0.00 | 0.00 | 43 | 1017.1 |
| 20260905173603 | 35 | 336 | 9.7 | 16.1 | 0.00 | 0.00 | 0.00 | 44 | 1017.2 |
| 20260905173403 | 35 | 338 | 9.7 | 16.1 | 0.00 | 0.00 | 0.00 | 43 | 1017.0 |
| 20260905173203 | 34 | 330 | 8.0 | 16.1 | 0.00 | 0.00 | 0.00 | 44 | 1017.2 |
| 20260905173004 | 34 | 331 | 8.0 | 16.1 | 0.00 | 0.00 | 0.00 | 45 | 1017.1 |
| 20260905172803 | 33 | 330 | 8.0 | 14.5 | 0.00 | 0.00 | 0.00 | 43 | 1017.1 |
| 20260905172604 | 34 | 335 | 8.0 | 14.5 | 0.00 | 0.00 | 0.00 | 43 | 1017.1 |
| 20260905172403 | 35 | 347 | 8.0 | 14.5 | 0.00 | 0.00 | 0.00 | 42 | 1017.2 |
| 20260905172203 | 35 | 353 | 8.0 | 14.5 | 0.00 | 0.00 | 0.00 | 43 | 1017.1 |
| 20260905172004 | 35 | 5 | 8.0 | 12.9 | 0.00 | 0.00 | 0.00 | 43 | 1017.1 |
| 20260905171803 | 35 | 33 | 8.0 | 14.5 | 0.00 | 0.00 | 0.00 | 43 | 1017.2 |
| 20260905171604 | 35 | 36 | 8.0 | 19.3 | 0.00 | 0.00 | 0.00 | 43 | 1017.2 |
| 20260905170803 | 34 | 344 | 9.7 | 19.3 | 0.00 | 0.00 | 0.00 | 46 | 1017.3 |
| 20260905170404 | 33 | 319 | 8.0 | 17.7 | 0.00 | 0.00 | 0.00 | 45 | 1017.3 |
| 20260905170204 | 33 | 326 | 6.4 | 17.7 | 0.00 | 0.00 | 0.00 | 47 | 1017.5 |
| 20260905170003 | 33 | 348 | 4.8 | 12.9 | 0.00 | 0.00 | 0.00 | 46 | 1017.6 |
| 20260905165803 | 33 | 33 | 6.4 | 12.9 | 0.00 | 0.00 | 0.00 | 46 | 1017.4 |
| 20260905165604 | 33 | 16 | 8.0 | 12.9 | 0.00 | 0.00 | 0.00 | 47 | 1017.4 |
| 20260905165403 | 33 | 42 | 6.4 | 12.9 | 0.00 | 0.00 | 0.00 | 49 | 1017.3 |
| 20260905165204 | 33 | 66 | 6.4 | 11.3 | 0.00 | 0.00 | 0.00 | 49 | 1017.4 |
| 20260905165003 | 33 | 45 | 8.0 | 11.3 | 0.00 | 0.00 | 0.00 | 49 | 1017.3 |
| 20260905164604 | 33 | 354 | 6.4 | 11.3 | 0.00 | 0.00 | 0.00 | 47 | 1017.7 |
| 20260905164403 | 33 | 6 | 6.4 | 11.3 | 0.00 | 0.00 | 0.00 | 48 | 1017.5 |
| 20260905164203 | 34 | 2 | 6.4 | 11.3 | 0.00 | 0.00 | 0.00 | 49 | 1017.6 |
| 20260905164004 | 33 | 35 | 4.8 | 9.7 | 0.00 | 0.00 | 0.00 | 49 | 1017.7 |
| 20260905163803 | 33 | 36 | 4.8 | 11.3 | 0.00 | 0.00 | 0.00 | 48 | 1017.6 |
| 20260905163603 | 33 | 5 | 6.4 | 17.7 | 0.00 | 0.00 | 0.00 | 50 | 1017.5 |
| 20260905163404 | 33 | 11 | 8.0 | 19.3 | 0.00 | 0.00 | 0.00 | 50 | 1017.6 |
| 20260905163203 | 33 | 5 | 9.7 | 19.3 | 0.00 | 0.00 | 0.00 | 50 | 1017.6 |
| 20260905163004 | 32 | 341 | 9.7 | 19.3 | 0.00 | 0.00 | 0.00 | 50 | 1017.7 |
| 20260905162803 | 32 | 344 | 12.9 | 19.3 | 0.00 | 0.00 | 0.00 | 50 | 1017.8 |
| 20260905162603 | 32 | 342 | 12.9 | 19.3 | 0.00 | 0.00 | 0.00 | 50 | 1017.8 |
| 20260905162404 | 32 | 329 | 11.3 | 19.3 | 0.00 | 0.00 | 0.00 | 51 | 1017.8 |
| 20260905162203 | 32 | 326 | 11.3 | 19.3 | 0.00 | 0.00 | 0.00 | 51 | 1017.7 |
| 20260905161803 | 31 | 339 | 8.0 | 19.3 | 0.00 | 0.00 | 0.00 | 52 | 1017.8 |
| 20260905161403 | 31 | 9 | 6.4 | 11.3 | 0.00 | 0.00 | 0.00 | 54 | 1017.8 |
| 20260905161003 | 31 | 3 | 6.4 | 14.5 | 0.00 | 0.00 | 0.00 | 60 | 1017.7 |
| 20260905160804 | 30 | 358 | 8.0 | 17.7 | 0.00 | 0.00 | 0.00 | 61 | 1018.0 |
| 20260905160603 | 30 | 351 | 8.0 | 17.7 | 0.00 | 0.00 | 0.00 | 61 | 1017.9 |
| 20260905160403 | 29 | 358 | 6.4 | 17.7 | 0.00 | 0.00 | 0.00 | 62 | 1017.9 |
| 20260905160004 | 28 | 358 | 4.8 | 17.7 | 0.00 | 0.00 | 0.00 | 62 | 1017.8 |
| 20260905155603 | 28 | 23 | 3.2 | 4.8 | 0.00 | 0.00 | 0.00 | 64 | 1017.8 |
| 20260905155403 | 28 | 9 | 3.2 | 8.0 | 0.00 | 0.00 | 0.00 | 63 | 1017.9 |
| 20260905155203 | 28 | 12 | 4.8 | 8.0 | 0.00 | 0.00 | 0.00 | 63 | 1017.9 |
| 20260905155004 | 28 | 32 | 4.8 | 8.0 | 0.00 | 0.00 | 0.00 | 63 | 1017.9 |
| 20260905154803 | 28 | 54 | 4.8 | 8.0 | 0.00 | 0.00 | 0.00 | 65 | 1018.1 |
| 20260905154203 | 28 | 84 | 3.2 | 8.0 | 0.00 | 0.00 | 0.00 | 70 | 1018.0 |
| 20260905154003 | 28 | 79 | 1.6 | 8.0 | 0.00 | 0.00 | 0.00 | 70 | 1018.1 |
| 20260905153804 | 28 | 58 | 1.6 | 8.0 | 0.00 | 0.00 | 0.00 | 70 | 1018.0 |
| 20260905153603 | 28 | 311 | 0.0 | 1.6 | 0.00 | 0.00 | 0.00 | 70 | 1018.0 |
| 20260905153204 | 27 | 336 | 1.6 | 3.2 | 0.00 | 0.00 | 0.00 | 71 | 1017.9 |
| 20260905153003 | 27 | 326 | 1.6 | 3.2 | 0.00 | 0.00 | 0.00 | 71 | 1018.0 |
| 20260905152403 | 27 | 229 | 1.6 | 3.2 | 0.00 | 0.00 | 0.00 | 72 | 1018.2 |
| 20260905152203 | 27 | 77 | 1.6 | 4.8 | 0.00 | 0.00 | 0.00 | 72 | 1018.1 |
| 20260905152003 | 26 | 78 | 1.6 | 4.8 | 0.00 | 0.00 | 0.00 | 73 | 1018.0 |
| 20260905151803 | 26 | 74 | 1.6 | 4.8 | 0.00 | 0.00 | 0.00 | 73 | 1018.1 |
| 20260905151603 | 26 | 74 | 1.6 | 4.8 | 0.00 | 0.00 | 0.00 | 73 | 1018.3 |
| 20260905151403 | 26 | 43 | 1.6 | 4.8 | 0.00 | 0.00 | 0.00 | 73 | 1017.9 |
| 20260905151203 | 26 | 27 | 1.6 | 4.8 | 0.00 | 0.00 | 0.00 | 73 | 1018.1 |
| 20260905151004 | 26 | 36 | 1.6 | 4.8 | 0.00 | 0.00 | 0.00 | 73 | 1018.1 |
| 20260905150603 | 26 | 38 | 3.2 | 4.8 | 0.00 | 0.00 | 0.00 | 73 | 1018.2 |
| 20260905150403 | 26 | 49 | 3.2 | 4.8 | 0.00 | 0.00 | 0.00 | 77 | 1018.3 |
| 20260905150203 | 26 | 47 | 3.2 | 4.8 | 0.00 | 0.00 | 0.00 | 78 | 1018.2 |
| 20260905145803 | 26 | 57 | 1.6 | 4.8 | 0.00 | 0.00 | 0.00 | 78 | 1018.3 |
| 20260905145603 | 25 | 69 | 1.6 | 3.2 | 0.00 | 0.00 | 0.00 | 77 | 1018.3 |
| 20260905145403 | 25 | 69 | 1.6 | 3.2 | 0.00 | 0.00 | 0.00 | 77 | 1018.2 |
| 20260905145003 | 25 | 102 | 1.6 | 3.2 | 0.00 | 0.00 | 0.00 | 77 | 1018.2 |
| 20260905144403 | 25 | 93 | 1.6 | 3.2 | 0.00 | 0.00 | 0.00 | 77 | 1018.4 |
| 20260905144203 | 25 | 90 | 1.6 | 4.8 | 0.00 | 0.00 | 0.00 | 77 | 1018.5 |
| 20260905144003 | 25 | 88 | 1.6 | 4.8 | 0.00 | 0.00 | 0.00 | 77 | 1018.1 |
| 20260905143803 | 25 | 88 | 1.6 | 4.8 | 0.00 | 0.00 | 0.00 | 77 | 1018.2 |
| 20260905143604 | 25 | 87 | 1.6 | 4.8 | 0.00 | 0.00 | 0.00 | 78 | 1018.3 |
| 20260905143003 | 25 | 40 | 1.6 | 4.8 | 0.00 | 0.00 | 0.00 | 78 | 1018.3 |
| 20260905142803 | 25 | 40 | 1.6 | 4.8 | 0.00 | 0.00 | 0.00 | 78 | 1018.4 |
| 20260905142603 | 25 | 27 | 1.6 | 4.8 | 0.00 | 0.00 | 0.00 | 79 | 1018.5 |
| 20260905142403 | 25 | 25 | 1.6 | 4.8 | 0.00 | 0.00 | 0.00 | 79 | 1018.5 |
| 20260905142204 | 25 | 8 | 1.6 | 4.8 | 0.00 | 0.00 | 0.00 | 79 | 1018.4 |
| 20260905142004 | 25 | 10 | 1.6 | 3.2 | 0.00 | 0.00 | 0.00 | 78 | 1018.5 |
| 20260905141803 | 25 | 14 | 1.6 | 4.8 | 0.00 | 0.00 | 0.00 | 79 | 1018.4 |
| 20260905141604 | 25 | 33 | 1.6 | 4.8 | 0.00 | 0.00 | 0.00 | 80 | 1018.3 |
| 20260905141403 | 25 | 38 | 3.2 | 4.8 | 0.00 | 0.00 | 0.00 | 80 | 1018.4 |
| 20260905141203 | 25 | 43 | 3.2 | 4.8 | 0.00 | 0.00 | 0.00 | 81 | 1018.6 |
| 20260905141003 | 25 | 43 | 3.2 | 4.8 | 0.00 | 0.00 | 0.00 | 82 | 1018.5 |
| 20260905140403 | 23 | 54 | 1.6 | 4.8 | 0.00 | 0.00 | 0.00 | 84 | 1018.5 |
| 20260905140203 | 23 | 67 | 1.6 | 4.8 | 0.00 | 0.00 | 0.00 | 84 | 1018.5 |
| 20260905135803 | 23 | 92 | 1.6 | 3.2 | 0.00 | 0.00 | 0.00 | 85 | 1018.5 |
| 20260905135603 | 23 | 94 | 1.6 | 3.2 | 0.00 | 0.00 | 0.00 | 86 | 1018.5 |
| 20260905135203 | 23 | 93 | 1.6 | 3.2 | 0.00 | 0.00 | 0.00 | 87 | 1018.5 |
| 20260905135004 | 23 | 94 | 1.6 | 3.2 | 0.00 | 0.00 | 0.00 | 87 | 1018.6 |
| 20260905134804 | 23 | 93 | 1.6 | 3.2 | 0.00 | 0.00 | 0.00 | 87 | 1018.7 |
| 20260905134604 | 22 | 90 | 1.6 | 3.2 | 0.00 | 0.00 | 0.00 | 87 | 1018.7 |
| 20260905134403 | 22 | 105 | 0.0 | 3.2 | 0.00 | 0.00 | 0.00 | 87 | 1018.6 |
| 20260905134203 | 22 | 49 | 0.0 | 1.6 | 0.00 | 0.00 | 0.00 | 87 | 1018.6 |
| 20260905134003 | 22 | 45 | 1.6 | 3.2 | 0.00 | 0.00 | 0.00 | 88 | 1018.6 |
| 20260905133803 | 22 | 46 | 1.6 | 3.2 | 0.00 | 0.00 | 0.00 | 88 | 1018.7 |
| 20260905133403 | 22 | 58 | 1.6 | 4.8 | 0.00 | 0.00 | 0.00 | 89 | 1018.7 |
| 20260905133203 | 22 | 60 | 3.2 | 4.8 | 0.00 | 0.00 | 0.00 | 90 | 1018.9 |
| 20260905133004 | 22 | 61 | 1.6 | 4.8 | 0.00 | 0.00 | 0.00 | 90 | 1018.7 |
| 20260905132803 | 22 | 63 | 1.6 | 4.8 | 0.00 | 0.00 | 0.00 | 90 | 1018.7 |
| 20260905132603 | 22 | 59 | 1.6 | 4.8 | 0.00 | 0.00 | 0.00 | 90 | 1018.8 |
| 20260905132403 | 22 | 62 | 1.6 | 3.2 | 0.00 | 0.00 | 0.00 | 91 | 1018.9 |
| 20260905132203 | 22 | 64 | 1.6 | 3.2 | 0.00 | 0.00 | 0.00 | 91 | 1018.7 |
| 20260905132004 | 22 | 70 | 1.6 | 3.2 | 0.00 | 0.00 | 0.00 | 92 | 1018.8 |
| 20260905131804 | 22 | 73 | 1.6 | 3.2 | 0.00 | 0.00 | 0.00 | 93 | 1018.8 |
| 20260905131403 | 21 | 0 | 0.0 | 0.0 | 0.00 | 0.00 | 0.00 | 94 | 1018.6 |
| 20260905131203 | 21 | 0 | 0.0 | 0.0 | 0.00 | 0.00 | 0.00 | 94 | 1018.7 |
| 20260905131004 | 21 | 0 | 0.0 | 0.0 | 0.00 | 0.00 | 0.00 | 95 | 1018.9 |
| 20260905130803 | 21 | 0 | 0.0 | 0.0 | 0.00 | 0.00 | 0.00 | 95 | 1018.6 |
| 20260905130603 | 21 | 0 | 0.0 | 0.0 | 0.00 | 0.00 | 0.00 | 97 | 1018.6 |
| 20260905130404 | 21 | 0 | 0.0 | 0.0 | 0.00 | 0.00 | 0.00 | 98 | 1018.8 |
| 20260905130204 | 21 | 0 | 0.0 | 0.0 | 0.00 | 0.00 | 0.00 | 98 | 1018.7 |
| 20260905130004 | 21 | 0 | 0.0 | 0.0 | 0.00 | 0.00 | 0.00 | 98 | 1018.7 |
| 20260905125803 | 21 | 0 | 0.0 | 0.0 | 0.00 | 0.00 | 0.00 | 98 | 1018.6 |
| 20260905125603 | 20 | 0 | 0.0 | 0.0 | 0.00 | 0.00 | 0.00 | 99 | 1018.7 |
| 20260905125403 | 20 | 0 | 0.0 | 0.0 | 0.00 | 0.00 | 0.00 | 99 | 1018.8 |
| 20260905124803 | 20 | 0 | 0.0 | 0.0 | 0.00 | 0.00 | 0.00 | 99 | 1018.7 |
| 20260905124403 | 20 | 0 | 0.0 | 0.0 | 0.00 | 0.00 | 0.00 | 99 | 1018.7 |
| 20260905124203 | 20 | 0 | 0.0 | 0.0 | 0.00 | 0.00 | 0.00 | 99 | 1018.7 |
| 20260905124003 | 20 | 0 | 0.0 | 0.0 | 0.00 | 0.00 | 0.00 | 99 | 1018.6 |
| 20260905123603 | 20 | 0 | 0.0 | 0.0 | 0.00 | 0.00 | 0.00 | 99 | 1018.8 |
| 20260905123203 | 20 | 0 | 0.0 | 0.0 | 0.00 | 0.00 | 0.00 | 99 | 1018.7 |
| 20260905123004 | 20 | 0 | 0.0 | 0.0 | 0.00 | 0.00 | 0.00 | 99 | 1018.7 |
| 20260905122803 | 20 | 0 | 0.0 | 0.0 | 0.00 | 0.00 | 0.00 | 99 | 1018.7 |
| 20260905122603 | 20 | 0 | 0.0 | 0.0 | 0.00 | 0.00 | 0.00 | 99 | 1018.5 |
| 20260905122203 | 20 | 0 | 0.0 | 0.0 | 0.00 | 0.00 | 0.00 | 99 | 1018.6 |
| 20260905122003 | 20 | 0 | 0.0 | 0.0 | 0.00 | 0.00 | 0.00 | 99 | 1018.6 |
| 20260905121803 | 20 | 0 | 0.0 | 0.0 | 0.00 | 0.00 | 0.00 | 99 | 1018.5 |
| 20260905121604 | 20 | 0 | 0.0 | 0.0 | 0.00 | 0.00 | 0.00 | 99 | 1018.5 |
| 20260905121203 | 20 | 0 | 0.0 | 0.0 | 0.00 | 0.00 | 0.00 | 99 | 1018.4 |
| 20260905121003 | 20 | 0 | 0.0 | 0.0 | 0.00 | 0.00 | 0.00 | 99 | 1018.7 |
| 20260905120603 | 20 | 0 | 0.0 | 0.0 | 0.00 | 0.00 | 0.00 | 99 | 1018.4 |
| 20260905120203 | 19 | 0 | 0.0 | 0.0 | 0.00 | 0.00 | 0.00 | 99 | 1018.4 |
| 20260905115603 | 19 | 0 | 0.0 | 0.0 | 0.00 | 0.00 | 0.00 | 99 | 1018.3 |
| 20260905115403 | 19 | 0 | 0.0 | 0.0 | 0.00 | 0.00 | 0.00 | 99 | 1018.4 |
| 20260905115203 | 19 | 0 | 0.0 | 0.0 | 0.00 | 0.00 | 0.00 | 99 | 1018.3 |
| 20260905115003 | 19 | 0 | 0.0 | 0.0 | 0.00 | 0.00 | 0.00 | 99 | 1018.3 |
| 20260905114803 | 19 | 0 | 0.0 | 0.0 | 0.00 | 0.00 | 0.00 | 99 | 1018.2 |
| 20260905114603 | 19 | 0 | 0.0 | 0.0 | 0.00 | 0.00 | 0.00 | 98 | 1018.4 |
| 20260905114403 | 19 | 0 | 0.0 | 0.0 | 0.00 | 0.00 | 0.00 | 98 | 1018.1 |
| 20260905114203 | 19 | 0 | 0.0 | 0.0 | 0.00 | 0.00 | 0.00 | 98 | 1018.1 |
| 20260905114004 | 19 | 0 | 0.0 | 0.0 | 0.00 | 0.00 | 0.00 | 98 | 1018.2 |
| 20260905113603 | 19 | 0 | 0.0 | 0.0 | 0.00 | 0.00 | 0.00 | 98 | 1018.0 |
| 20260905113203 | 19 | 0 | 0.0 | 0.0 | 0.00 | 0.00 | 0.00 | 97 | 1017.9 |
| 20260905113004 | 19 | 0 | 0.0 | 0.0 | 0.00 | 0.00 | 0.00 | 97 | 1018.0 |
| 20260905112803 | 19 | 0 | 0.0 | 0.0 | 0.00 | 0.00 | 0.00 | 97 | 1018.0 |
| 20260905112603 | 19 | 0 | 0.0 | 0.0 | 0.00 | 0.00 | 0.00 | 97 | 1017.9 |
| 20260905112204 | 19 | 0 | 0.0 | 0.0 | 0.00 | 0.00 | 0.00 | 97 | 1017.8 |
| 20260905112004 | 19 | 0 | 0.0 | 0.0 | 0.00 | 0.00 | 0.00 | 97 | 1017.8 |
| 20260905111803 | 19 | 0 | 0.0 | 0.0 | 0.00 | 0.00 | 0.00 | 96 | 1017.7 |
| 20260905111603 | 19 | 0 | 0.0 | 0.0 | 0.00 | 0.00 | 0.00 | 96 | 1017.5 |
| 20260905111403 | 19 | 0 | 0.0 | 0.0 | 0.00 | 0.00 | 0.00 | 96 | 1017.7 |
| 20260905111003 | 19 | 0 | 0.0 | 0.0 | 0.00 | 0.00 | 0.00 | 96 | 1017.7 |
| 20260905110804 | 20 | 0 | 0.0 | 0.0 | 0.00 | 0.00 | 0.00 | 96 | 1017.7 |
| 20260905110604 | 20 | 0 | 0.0 | 0.0 | 0.00 | 0.00 | 0.00 | 96 | 1017.7 |
| 20260905110403 | 20 | 0 | 0.0 | 0.0 | 0.00 | 0.00 | 0.00 | 96 | 1017.7 |
| 20260905110203 | 20 | 0 | 0.0 | 0.0 | 0.00 | 0.00 | 0.00 | 96 | 1017.7 |
| 20260905110010 | 20 | 0 | 0.0 | 0.0 | 0.00 | 0.00 | 0.00 | 96 | 1017.6 |
| 20260905105803 | 20 | 0 | 0.0 | 0.0 | 0.00 | 0.00 | 0.00 | 96 | 1017.7 |
| 20260905105603 | 20 | 0 | 0.0 | 0.0 | 0.00 | 0.00 | 0.00 | 96 | 1017.5 |
| 20260905105403 | 20 | 0 | 0.0 | 0.0 | 0.00 | 0.00 | 0.00 | 95 | 1017.6 |